Terminal Aerodrome Forecast
Issued by NWS

Home | Current Version | Previous Version | Graphics & Text | Print | Product List | Glossary On
Versions: 1 2 3 4 5 6 7 8 9 10 11 12 13 14 15 16 17 18 19 20 21 22 23 24 25 26 27
087
FTUS43 KABR 031307 AAA
TAFATY
TAF AMD
KATY 031307Z 0313/0412 35015KT P6SM OVC035
      TEMPO 0313/0315 OVC025
     FM031500 33012KT P6SM SCT029 BKN080
     FM032100 27008KT P6SM SCT100 BKN250
     FM032300 23007KT P6SM OVC045=

USA.gov is the U.S. government's official web portal to all federal, state and local government web resources and services.